Updated20/08/2017 21:55 
 

GeoURL
free counters
Scottish Weather Network UK Weather Network Cumulus Top Weather Sites

Peebles Weather - Nearby METAR Reports

Raw Data, Raw Data Expanded

Ignore low humidity and Dew Point values. Something wrong with the sensor.
Daytime temperatures are in direct sunlight so may be higher than official air temperature values.

Warnings and solar data not updating. Currently under investigation. (27th Oct 2016)

2017/08/20 20:50 EGPH 202050Z 21003KT CAVOK 13/09 Q1021
9.6°C 0.0 mm 0.0 mm 0.0 mm 0.0 mph 0.0 mph 1018.2 hPa 80% X-Ray Solar Flare Level
Planetary K-Index
Planetary K-Index History
Station Warn Rain Snow Flood Wind Ltng Heat Cold Glob Moon Temp Rain 1h Rain Sun Rain 24h Wind 10m Gust Pressure Hum Proton Levels
Lost sensor contact!!!
0.439 m Waning Crescent Cool F0-S F:87 A:31 Kp:3 SSN:33

METAR Reports

 

EGPH - Edinburgh Airpor, United Kingdom
Distance from station: NNW 22mi, 36km
Updated: 20/08/2017 21:50
Clear
Clear
 Wind from SSW
Wind: SSW 3 mph , 6 km/h
Temperature: 13°C
Dew Point: 9°C
Humidity: 77%
Barometer: 1021 hPa
Summary: Clear
Visibility: greater than 7 miles , 10 km
2017/08/20 20:50 EGPH 202050Z 21003KT CAVOK 13/09 Q1021
EGOM - Spadeadam, United Kingdom
Distance from station: SSE 49mi, 79km
Updated: 20/08/2017 20:50
Clear
Clear
 Wind from W
Wind: W 2 mph , 4 km/h
Temperature: 9°C
Dew Point: 8°C
Humidity: 94%
Barometer: 1021 hPa
Clouds: Clear
Visibility: 6 miles , 10 km
2017/08/20 19:50 EGOM 201950Z AUTO 28002KT 9999 NCD 09/08 Q1021
 
EGNC - Carlisle, United Kingdom
Distance from station: SSE 51mi, 82km
Updated: 18/08/2017 17:50
NOT Current
Nearby showers, Partly cloudy
Nearby showers, Partly cloudy
 Wind from WSW
Wind: WSW 17 mph , 28 km/h
Temperature: 14°C
Dew Point: 10°C
Humidity: 77%
Barometer: 1004 hPa
Summary: Nearby Showers
Clouds: Partly cloudy
Visibility: 6 miles , 10 km
Cloud details: Partly cloudy 518 m
2017/08/18 16:50 EGNC 181650Z 24015KT 210V270 9999 VCSH SCT017 14/10 Q1004
EGPF - Glasgow Airport, United Kingdom
Distance from station: WNW 51mi, 82km
Updated: 20/08/2017 21:50
Clear
Clear
 Wind from varies
Wind: varies 2 mph , 4 km/h
Temperature: 11°C
Dew Point: 8°C
Humidity: 82%
Barometer: 1021 hPa
Clouds: Clear
Visibility: 6 miles , 10 km
2017/08/20 20:50 EGPF 202050Z AUTO VRB02KT 9999 NCD 11/08 Q1021
 
EGQL - Leuchars Raf, United Kingdom
Distance from station: NNE 53mi, 85km
Updated: 20/08/2017 20:50
Clear
Clear
 Wind from W
Wind: W 6 mph , 9 km/h
Temperature: 13°C
Dew Point: 10°C
Humidity: 82%
Barometer: 1020 hPa
Summary: Clear
Visibility: greater than 7 miles , 10 km
2017/08/20 19:50 EGQL 201950Z 26005KT CAVOK 13/10 Q1020 BLU
EGPK - Prestwick(Civ/Na, United Kingdom
Distance from station: W 55mi, 89km
Updated: 20/08/2017 21:50
Few Clouds
Few Clouds
 Wind from calm
Wind: Calm
Temperature: 10°C
Dew Point: 7°C
Humidity: 82%
Barometer: 1021 hPa
Clouds: Few Clouds
Visibility: 6 miles , 10 km
Cloud details: Few Clouds 1219 m
2017/08/20 20:50 EGPK 202050Z 00000KT 9999 FEW040 10/07 Q1021
 
EGPN - Dundee/Riverside, United Kingdom
Distance from station: N 56mi, 90km
Updated: 20/08/2017 20:50
Clear
Clear
 Wind from W
Wind: W 2 mph , 4 km/h
Temperature: 15°C
Dew Point: 12°C
Humidity: 82%
Barometer: 1020 hPa
Summary: Clear
Visibility: greater than 7 miles , 10 km
2017/08/20 19:50 EGPN 201950Z 28002KT CAVOK 15/12 Q1020
EGNT - Newcastle, United Kingdom
Distance from station: SE 72mi, 116km
Updated: 20/08/2017 21:50
Partly cloudy
Partly cloudy
 Wind from SW
Wind: SW 2 mph , 4 km/h
Temperature: 12°C
Dew Point: 9°C
Humidity: 82%
Barometer: 1022 hPa
Clouds: Partly cloudy
Visibility: 6 miles , 10 km
Cloud details: Partly cloudy 1219 m
2017/08/20 20:50 EGNT 202050Z 23002KT 9999 SCT040 12/09 Q1022
 
EGNV - Tees-Side, United Kingdom
Distance from station: SE 104mi, 168km
Updated: 20/08/2017 21:50
Clear
Clear
 Wind from SSW
Wind: SSW 6 mph , 9 km/h
Temperature: 11°C
Dew Point: 8°C
Humidity: 82%
Barometer: 1022 hPa
Summary: Clear
Visibility: greater than 7 miles , 10 km
2017/08/20 20:50 EGNV 202050Z 20005KT CAVOK 11/08 Q1022
EGPD - Aberdeen/Dyce, United Kingdom
Distance from station: NNE 114mi, 183km
Updated: 20/08/2017 21:50
Mostly cloudy
Mostly cloudy
 Wind from ENE
Wind: ENE 2 mph , 4 km/h
Temperature: 13°C
Dew Point: 12°C
Humidity: 94%
Barometer: 1022 hPa
Clouds: Mostly cloudy
Visibility: 6 miles , 10 km
Cloud details: Mostly cloudy 457 m
2017/08/20 20:50 EGPD 202050Z AUTO 06002KT 9999 BKN015 13/12 Q1022 NOSIG
 
EGNS - Isle Of Man/Rona, United Kingdom
Distance from station: SSW 122mi, 197km
Updated: 20/08/2017 21:50
Mostly cloudy
Mostly cloudy
 Wind from E
Wind: E 10 mph , 17 km/h
Temperature: 15°C
Dew Point: 11°C
Humidity: 77%
Barometer: 1020 hPa
Clouds: Mostly cloudy
Visibility: 6 miles , 10 km
Cloud details: Partly cloudy 701 m
Mostly cloudy 1128 m
2017/08/20 20:50 EGNS 202050Z 09009KT 9999 SCT023 BKN037 15/11 Q1020
EGAC - Belfast Harbour, United Kingdom
Distance from station: WSW 128mi, 206km
Updated: 20/08/2017 21:20
Mostly cloudy
Mostly cloudy
 Wind from SE
Wind: SE 8 mph , 13 km/h
Temperature: 14°C
Dew Point: 12°C
Humidity: 88%
Barometer: 1020 hPa
Clouds: Mostly cloudy
Visibility: 6 miles , 10 km
Cloud details: Few Clouds 335 m
Mostly cloudy 427 m
2017/08/20 20:20 EGAC 202020Z 14007KT 110V180 9999 FEW011 BKN014 14/12 Q1020
 
EGPE - Inverness/Dalcro, United Kingdom
Distance from station: NNW 134mi, 215km
Updated: 20/08/2017 21:50
Partly cloudy
Partly cloudy
 Wind from E
Wind: E 8 mph , 13 km/h
Temperature: 13°C
Dew Point: 11°C
Humidity: 88%
Barometer: 1021 hPa
Clouds: Partly cloudy
Visibility: 6 miles , 10 km
Cloud details: Few Clouds 732 m
Partly cloudy 1067 m
2017/08/20 20:50 EGPE 202050Z 08007KT 9999 FEW024 SCT035 13/11 Q1021
XHTML 1.1 | CSS